London, Canada
Current Conditions -  °F | °C
As of 10:00 PM on Thursday 18 Dec 2014 (Local Time) from CYXU Reporting Station
Light Snow Light Snow  
Wind Chill: -6°   Ceiling: 1400
Heat Index: -2°   Visibility: 10mi
Dew Point: -4°   Wind: 8mph
Humidity: 86%   Direction: 300°WNW
Pressure: 30.11"   Gusts: NA
Location:  42.99°N, 81.25°W
Report Text: CYXU 190300Z 30007KT 10SM -SN FEW009 OVC014 M02/M04 A3011 RMK SF1SC7 PCPN VRY LGT SLP208
Loading
Personal Weather Stations






























Interactive Weather Map New forecast layout! Learn more

10-Day Weather Forecast

Advertisements
Track Severe Weather on mobile